Time,TemperatureF,DewpointF,PressureIn,WindDirection,WindDirectionDegrees,WindSpeedMPH,WindSpeedGustMPH,Humidity,HourlyPrecipIn,Conditions,Clouds,dailyrainin,SoftwareType,DateUTC
2013-05-21 00:02:00,54.1,52.4,30.00,South,180,0.0,0.0,94,0.00,,,0.00,WeatherCatV1.10B1784,2013-05-20 23:02:00,
2013-05-21 00:12:00,54.0,52.2,29.99,South,180,0.0,0.0,94,0.00,,,0.00,WeatherCatV1.10B1784,2013-05-20 23:12:00,
2013-05-21 00:22:00,53.8,52.1,30.00,NNW,337,0.0,0.9,94,0.00,,,0.00,WeatherCatV1.10B1784,2013-05-20 23:22:00,
2013-05-21 00:32:00,53.4,51.7,30.00,North,0,0.0,0.0,94,0.00,,,0.00,WeatherCatV1.10B1784,2013-05-20 23:32:00,
2013-05-21 00:42:00,53.2,51.5,30.00,SSE,157,0.0,0.0,94,0.00,,,0.00,WeatherCatV1.10B1784,2013-05-20 23:42:00,
2013-05-21 00:52:00,53.2,51.5,30.00,SE,135,0.0,0.0,94,0.00,,,0.00,WeatherCatV1.10B1784,2013-05-20 23:52:00,
2013-05-21 01:02:00,52.9,51.2,30.00,SE,135,0.0,0.0,94,0.00,,,0.00,WeatherCatV1.10B1784,2013-05-21 00:02:00,
2013-05-21 01:12:00,52.9,51.2,29.99,SE,135,0.0,0.0,94,0.00,,,0.00,WeatherCatV1.10B1784,2013-05-21 00:12:00,
2013-05-21 01:22:00,52.7,51.0,30.00,SE,135,0.0,0.0,94,0.00,,,0.00,WeatherCatV1.10B1784,2013-05-21 00:22:00,
2013-05-21 01:32:00,52.7,51.0,30.00,SE,135,0.0,0.0,94,0.00,,,0.00,WeatherCatV1.10B1784,2013-05-21 00:32:00,
2013-05-21 01:42:00,52.5,50.8,30.00,SE,135,0.0,0.0,94,0.00,,,0.00,WeatherCatV1.10B1784,2013-05-21 00:42:00,
2013-05-21 01:52:00,52.5,50.8,30.00,SE,135,0.0,0.0,94,0.00,,,0.00,WeatherCatV1.10B1784,2013-05-21 00:52:00,
2013-05-21 02:02:00,52.3,50.6,30.00,SE,135,0.0,0.0,94,0.00,,,0.00,WeatherCatV1.10B1784,2013-05-21 01:02:00,
2013-05-21 02:12:00,51.8,50.1,30.00,SE,135,0.0,0.0,94,0.00,,,0.00,WeatherCatV1.10B1784,2013-05-21 01:12:00,
2013-05-21 02:22:00,51.4,49.7,30.00,SE,135,0.0,0.0,94,0.00,,,0.00,WeatherCatV1.10B1784,2013-05-21 01:22:00,
2013-05-21 02:32:00,50.9,49.2,30.00,SE,135,0.0,0.0,94,0.00,,,0.00,WeatherCatV1.10B1784,2013-05-21 01:32:00,
2013-05-21 02:42:00,50.4,48.6,30.00,SE,135,0.0,0.0,94,0.00,,,0.00,WeatherCatV1.10B1784,2013-05-21 01:42:00,
2013-05-21 02:52:00,49.8,48.1,30.00,SE,135,0.0,0.0,94,0.00,,,0.00,WeatherCatV1.10B1784,2013-05-21 01:52:00,
2013-05-21 03:02:00,49.1,47.4,30.00,SE,135,0.0,0.0,94,0.00,,,0.00,WeatherCatV1.10B1784,2013-05-21 02:02:00,
2013-05-21 03:12:00,48.6,46.9,30.00,SE,135,0.0,0.0,94,0.00,,,0.00,WeatherCatV1.10B1784,2013-05-21 02:12:00,
2013-05-21 03:22:00,48.0,46.4,30.00,SE,135,0.0,0.0,94,0.00,,,0.00,WeatherCatV1.10B1784,2013-05-21 02:22:00,
2013-05-21 03:32:00,47.8,46.2,30.00,SE,135,0.0,0.0,94,0.00,,,0.00,WeatherCatV1.10B1784,2013-05-21 02:32:00,
2013-05-21 03:42:00,47.5,46.1,30.00,SE,135,0.0,0.0,95,0.00,,,0.00,WeatherCatV1.10B1784,2013-05-21 02:42:00,
2013-05-21 03:52:00,46.9,45.6,30.01,SE,135,0.0,0.0,95,0.00,,,0.00,WeatherCatV1.10B1784,2013-05-21 02:52:00,
2013-05-21 04:02:00,46.8,45.4,30.00,SE,135,0.0,0.0,95,0.00,,,0.00,WeatherCatV1.10B1784,2013-05-21 03:02:00,
2013-05-21 04:12:00,46.4,45.0,30.00,SE,135,0.0,0.0,95,0.00,,,0.00,WeatherCatV1.10B1784,2013-05-21 03:12:00,
2013-05-21 04:22:00,46.2,44.9,30.01,SE,135,0.0,0.0,95,0.00,,,0.00,WeatherCatV1.10B1784,2013-05-21 03:22:00,
2013-05-21 04:32:00,46.0,44.7,30.01,SE,135,0.0,0.0,95,0.00,,,0.00,WeatherCatV1.10B1784,2013-05-21 03:32:00,
2013-05-21 04:42:00,46.4,45.0,30.01,SE,135,0.0,0.0,95,0.00,,,0.00,WeatherCatV1.10B1784,2013-05-21 03:42:00,
2013-05-21 04:52:00,46.6,45.2,30.01,SE,135,0.0,0.0,95,0.00,,,0.00,WeatherCatV1.10B1784,2013-05-21 03:52:00,
2013-05-21 05:12:00,46.8,45.4,30.01,SE,135,0.0,0.0,95,0.00,,,0.00,WeatherCatV1.10B1784,2013-05-21 04:12:00,
2013-05-21 05:22:00,46.6,45.2,30.01,SE,135,0.0,0.0,95,0.00,,,0.00,WeatherCatV1.10B1784,2013-05-21 04:22:00,
2013-05-21 05:32:00,46.6,45.5,30.01,SE,135,0.0,0.0,96,0.00,,,0.00,WeatherCatV1.10B1784,2013-05-21 04:32:00,
2013-05-21 05:42:00,46.6,45.5,30.01,SE,135,0.0,0.0,96,0.00,,,0.00,WeatherCatV1.10B1784,2013-05-21 04:42:00,
2013-05-21 05:52:00,46.2,45.1,30.01,SE,135,0.0,0.0,96,0.00,,,0.00,WeatherCatV1.10B1784,2013-05-21 04:52:00,
2013-05-21 06:12:00,46.2,45.1,30.02,SE,135,0.0,0.0,96,0.00,,,0.00,WeatherCatV1.10B1784,2013-05-21 05:12:00,
2013-05-21 06:22:00,46.6,45.5,30.02,ESE,112,0.0,0.0,96,0.00,,,0.00,WeatherCatV1.10B1784,2013-05-21 05:22:00,
2013-05-21 06:32:00,46.8,45.7,30.02,ESE,112,0.0,0.0,96,0.00,,,0.00,WeatherCatV1.10B1784,2013-05-21 05:32:00,
2013-05-21 06:42:00,47.5,46.4,30.02,ENE,67,0.0,0.0,96,0.00,,,0.00,WeatherCatV1.10B1784,2013-05-21 05:42:00,
2013-05-21 06:52:00,48.0,46.9,30.03,East,90,0.0,0.0,96,0.00,,,0.00,WeatherCatV1.10B1784,2013-05-21 05:52:00,
2013-05-21 07:02:00,48.9,47.8,30.03,North,0,0.0,0.9,96,0.00,,,0.00,WeatherCatV1.10B1784,2013-05-21 06:02:00,
2013-05-21 07:12:00,49.6,48.5,30.02,North,0,0.0,0.0,96,0.00,,,0.00,WeatherCatV1.10B1784,2013-05-21 06:12:00,
2013-05-21 07:22:00,49.3,48.1,30.02,NNE,22,0.0,0.0,96,0.00,,,0.00,WeatherCatV1.10B1784,2013-05-21 06:22:00,
2013-05-21 07:32:00,49.8,48.5,30.03,NE,45,0.0,0.0,96,0.00,,,0.00,WeatherCatV1.10B1784,2013-05-21 06:32:00,
2013-05-21 07:42:00,49.8,48.7,30.02,NE,45,0.0,0.0,96,0.00,,,0.00,WeatherCatV1.10B1784,2013-05-21 06:42:00,
2013-05-21 07:52:00,50.7,49.9,30.02,NNE,22,0.0,0.0,97,0.00,,,0.00,WeatherCatV1.10B1784,2013-05-21 06:52:00,
2013-05-21 08:02:00,51.6,50.6,30.02,North,0,1.6,1.6,96,0.00,,,0.00,WeatherCatV1.10B1784,2013-05-21 07:02:00,
2013-05-21 08:12:00,52.0,50.8,30.02,North,0,0.0,1.8,96,0.00,,,0.00,WeatherCatV1.10B1784,2013-05-21 07:12:00,
2013-05-21 08:22:00,52.7,51.5,30.02,North,0,0.0,0.0,96,0.00,,,0.00,WeatherCatV1.10B1784,2013-05-21 07:22:00,
2013-05-21 08:32:00,52.9,51.4,30.02,NNW,337,0.0,0.0,95,0.00,,,0.00,WeatherCatV1.10B1784,2013-05-21 07:32:00,
2013-05-21 08:42:00,52.3,50.6,30.02,SSE,157,0.0,0.0,94,0.00,,,0.00,WeatherCatV1.10B1784,2013-05-21 07:42:00,
2013-05-21 08:52:00,52.0,50.0,30.02,SE,135,1.6,1.6,93,0.00,,,0.00,WeatherCatV1.10B1784,2013-05-21 07:52:00,
2013-05-21 09:02:00,52.3,50.0,30.02,NE,45,0.0,1.3,92,0.00,,,0.00,WeatherCatV1.10B1784,2013-05-21 08:02:00,
2013-05-21 09:12:00,52.5,49.9,30.02,SE,135,0.0,0.0,91,0.00,,,0.00,WeatherCatV1.10B1784,2013-05-21 08:12:00,
2013-05-21 09:22:00,53.2,50.6,30.02,NW,315,0.0,2.5,91,0.00,,,0.00,WeatherCatV1.10B1784,2013-05-21 08:22:00,
2013-05-21 09:32:00,54.0,50.5,30.03,South,180,1.3,1.3,88,0.00,,,0.00,WeatherCatV1.10B1784,2013-05-21 08:32:00,
2013-05-21 09:42:00,54.0,50.1,30.02,SE,135,1.3,1.6,87,0.00,,,0.00,WeatherCatV1.10B1784,2013-05-21 08:42:00,
2013-05-21 09:52:00,55.0,50.2,30.02,SE,135,0.0,4.5,84,0.00,,,0.00,WeatherCatV1.10B1784,2013-05-21 08:52:00,
2013-05-21 10:02:00,55.6,50.4,30.03,West,270,0.0,2.0,83,0.00,,,0.00,WeatherCatV1.10B1784,2013-05-21 09:02:00,
2013-05-21 10:12:00,55.4,50.3,30.02,South,180,0.0,1.6,83,0.00,,,0.00,WeatherCatV1.10B1784,2013-05-21 09:12:00,
2013-05-21 10:22:00,55.0,49.9,30.02,SE,135,0.0,1.3,83,0.00,,,0.00,WeatherCatV1.10B1784,2013-05-21 09:22:00,
2013-05-21 10:32:00,55.2,49.7,30.03,West,270,0.0,1.3,82,0.00,,,0.00,WeatherCatV1.10B1784,2013-05-21 09:32:00,
2013-05-21 10:42:00,55.6,49.8,30.02,South,180,0.0,1.1,81,0.00,,,0.00,WeatherCatV1.10B1784,2013-05-21 09:42:00,
2013-05-21 10:52:00,56.8,50.5,30.02,WNW,292,0.0,2.0,80,0.00,,,0.00,WeatherCatV1.10B1784,2013-05-21 09:52:00,
2013-05-21 11:02:00,57.4,50.5,30.02,NE,45,0.0,2.9,78,0.00,,,0.00,WeatherCatV1.10B1784,2013-05-21 10:02:00,
2013-05-21 11:12:00,57.9,50.4,30.01,North,0,0.9,2.2,76,0.00,,,0.00,WeatherCatV1.10B1784,2013-05-21 10:12:00,
2013-05-21 11:22:00,58.1,50.5,30.02,North,0,0.0,1.8,76,0.00,,,0.00,WeatherCatV1.10B1784,2013-05-21 10:22:00,
2013-05-21 11:32:00,58.8,50.9,30.02,SE,135,0.0,2.2,75,0.00,,,0.00,WeatherCatV1.10B1784,2013-05-21 10:32:00,
2013-05-21 11:42:00,59.4,50.4,30.02,WNW,292,0.0,2.9,72,0.00,,,0.00,WeatherCatV1.10B1784,2013-05-21 10:42:00,
2013-05-21 11:52:00,59.5,50.5,30.03,ESE,112,1.1,1.1,72,0.00,,,0.00,WeatherCatV1.10B1784,2013-05-21 10:52:00,
2013-05-21 12:02:00,59.4,50.4,30.03,ESE,112,2.0,4.5,72,0.00,,,0.00,WeatherCatV1.10B1784,2013-05-21 11:02:00,
2013-05-21 12:12:00,59.5,50.5,30.02,NNE,22,2.0,6.5,72,0.00,,,0.00,WeatherCatV1.10B1784,2013-05-21 11:12:00,
2013-05-21 12:22:00,60.1,50.4,30.02,NNW,337,0.0,5.6,70,0.00,,,0.00,WeatherCatV1.10B1784,2013-05-21 11:22:00,
2013-05-21 12:32:00,60.6,50.5,30.01,WNW,292,0.0,1.8,69,0.00,,,0.00,WeatherCatV1.10B1784,2013-05-21 11:32:00,
2013-05-21 12:42:00,60.6,49.7,30.02,ESE,112,1.3,5.1,67,0.00,,,0.00,WeatherCatV1.10B1784,2013-05-21 11:42:00,
2013-05-21 12:52:00,61.0,50.4,30.01,SSE,157,0.0,3.8,69,0.00,,,0.00,WeatherCatV1.10B1784,2013-05-21 11:52:00,
2013-05-21 13:02:00,61.5,49.7,30.01,SE,135,0.0,2.0,65,0.00,,,0.00,WeatherCatV1.10B1784,2013-05-21 12:02:00,
2013-05-21 13:12:00,61.3,49.5,30.01,SE,135,0.0,1.3,65,0.00,,,0.00,WeatherCatV1.10B1784,2013-05-21 12:12:00,
2013-05-21 13:22:00,61.3,49.5,30.02,North,0,1.6,4.5,65,0.00,,,0.00,WeatherCatV1.10B1784,2013-05-21 12:22:00,
2013-05-21 13:32:00,61.3,49.1,30.01,NW,315,3.6,5.4,64,0.00,,,0.00,WeatherCatV1.10B1784,2013-05-21 12:32:00,
2013-05-21 13:42:00,61.7,49.4,30.00,NNW,337,0.0,0.9,64,0.00,,,0.00,WeatherCatV1.10B1784,2013-05-21 12:42:00,
2013-05-21 13:52:00,61.3,48.3,30.00,SSE,157,1.6,2.7,62,0.00,,,0.00,WeatherCatV1.10B1784,2013-05-21 12:52:00,
2013-05-21 14:02:00,61.0,49.2,30.00,NNE,22,0.0,1.6,65,0.00,,,0.00,WeatherCatV1.10B1784,2013-05-21 13:02:00,
2013-05-21 14:12:00,60.6,49.2,30.00,North,0,2.0,3.8,66,0.00,,,0.00,WeatherCatV1.10B1784,2013-05-21 13:12:00,
2013-05-21 14:22:00,60.3,48.9,30.01,NNE,22,1.6,3.6,66,0.00,,,0.00,WeatherCatV1.10B1784,2013-05-21 13:22:00,
2013-05-21 14:32:00,60.4,49.9,30.01,North,0,0.0,2.5,68,0.00,,,0.00,WeatherCatV1.10B1784,2013-05-21 13:32:00,
2013-05-21 14:42:00,60.1,49.1,30.01,NE,45,1.1,3.8,67,0.00,,,0.00,WeatherCatV1.10B1784,2013-05-21 13:42:00,
2013-05-21 14:52:00,59.7,49.2,30.00,North,0,0.0,3.1,68,0.00,,,0.00,WeatherCatV1.10B1784,2013-05-21 13:52:00,
2013-05-21 15:02:00,59.4,48.8,30.01,North,0,0.0,2.5,68,0.00,,,0.00,WeatherCatV1.10B1784,2013-05-21 14:02:00,
2013-05-21 15:12:00,58.8,48.7,30.01,North,0,0.9,0.9,69,0.00,,,0.00,WeatherCatV1.10B1784,2013-05-21 14:12:00,
2013-05-21 15:22:00,58.6,48.9,30.01,North,0,0.0,0.0,70,0.00,,,0.00,WeatherCatV1.10B1784,2013-05-21 14:22:00,
2013-05-21 15:32:00,58.3,49.3,30.01,NNW,337,0.0,0.0,72,0.00,,,0.00,WeatherCatV1.10B1784,2013-05-21 14:32:00,
2013-05-21 15:42:00,57.9,49.6,30.01,North,0,0.0,0.0,74,0.00,,,0.00,WeatherCatV1.10B1784,2013-05-21 14:42:00,
2013-05-21 15:52:00,57.7,49.8,30.01,South,180,0.0,2.9,75,0.00,,,0.00,WeatherCatV1.10B1784,2013-05-21 14:52:00,
2013-05-21 16:02:00,57.2,49.3,30.01,North,0,0.0,0.0,75,0.00,,,0.00,WeatherCatV1.10B1784,2013-05-21 15:02:00,
2013-05-21 16:12:00,57.0,49.5,30.01,SSW,202,0.0,0.0,76,0.00,,,0.00,WeatherCatV1.10B1784,2013-05-21 15:12:00,
2013-05-21 16:22:00,56.8,49.3,30.01,South,180,0.0,1.6,76,0.00,,,0.00,WeatherCatV1.10B1784,2013-05-21 15:22:00,
2013-05-21 16:32:00,56.5,49.3,30.01,NNW,337,0.0,1.8,77,0.00,,,0.00,WeatherCatV1.10B1784,2013-05-21 15:32:00,
2013-05-21 16:42:00,56.3,49.5,30.01,NNW,337,0.0,0.0,78,0.00,,,0.00,WeatherCatV1.10B1784,2013-05-21 15:42:00,
2013-05-21 16:52:00,56.5,49.6,30.01,SW,225,0.0,0.0,78,0.00,,,0.00,WeatherCatV1.10B1784,2013-05-21 15:52:00,
2013-05-21 17:02:00,56.7,49.8,30.01,SE,135,0.0,0.0,78,0.00,,,0.00,WeatherCatV1.10B1784,2013-05-21 16:02:00,
2013-05-21 17:12:00,56.7,49.8,30.01,South,180,0.0,0.0,78,0.00,,,0.00,WeatherCatV1.10B1784,2013-05-21 16:12:00,
2013-05-21 17:22:00,56.5,49.6,30.01,South,180,0.0,0.0,78,0.00,,,0.00,WeatherCatV1.10B1784,2013-05-21 16:22:00,
2013-05-21 17:32:00,56.3,49.5,30.00,SSE,157,0.0,2.7,78,0.00,,,0.00,WeatherCatV1.10B1784,2013-05-21 16:32:00,
2013-05-21 17:42:00,56.1,49.6,30.01,NNW,337,0.0,0.0,79,0.00,,,0.00,WeatherCatV1.10B1784,2013-05-21 16:42:00,
2013-05-21 17:52:00,56.8,50.4,30.00,South,180,0.0,1.3,79,0.00,,,0.00,WeatherCatV1.10B1784,2013-05-21 16:52:00,
2013-05-21 18:02:00,56.8,49.8,30.01,NW,315,0.0,0.0,78,0.00,,,0.00,WeatherCatV1.10B1784,2013-05-21 17:02:00,
2013-05-21 18:12:00,56.5,49.6,30.01,South,180,0.0,2.2,78,0.00,,,0.00,WeatherCatV1.10B1784,2013-05-21 17:12:00,
2013-05-21 18:22:00,56.1,49.6,30.01,SE,135,0.0,0.7,79,0.00,,,0.00,WeatherCatV1.10B1784,2013-05-21 17:22:00,
2013-05-21 18:32:00,55.9,49.5,30.01,South,180,1.1,2.2,79,0.00,,,0.00,WeatherCatV1.10B1784,2013-05-21 17:32:00,
2013-05-21 18:42:00,55.8,49.6,30.01,SSW,202,1.3,1.3,80,0.00,,,0.00,WeatherCatV1.10B1784,2013-05-21 17:42:00,
2013-05-21 18:52:00,55.6,49.5,30.01,SW,225,0.0,0.0,80,0.00,,,0.00,WeatherCatV1.10B1784,2013-05-21 17:52:00,
2013-05-21 19:02:00,55.2,49.1,30.01,WNW,292,0.0,1.1,80,0.00,,,0.00,WeatherCatV1.10B1784,2013-05-21 18:02:00,
2013-05-21 19:12:00,55.2,49.4,30.01,North,0,0.7,0.7,81,0.00,,,0.00,WeatherCatV1.10B1784,2013-05-21 18:12:00,
2013-05-21 19:22:00,55.0,49.3,30.01,SW,225,0.0,0.9,81,0.00,,,0.00,WeatherCatV1.10B1784,2013-05-21 18:22:00,
2013-05-21 19:32:00,55.2,49.4,30.02,SW,225,0.0,1.1,81,0.00,,,0.00,WeatherCatV1.10B1784,2013-05-21 18:32:00,
2013-05-21 19:42:00,55.0,49.3,30.02,SW,225,0.0,0.0,81,0.00,,,0.00,WeatherCatV1.10B1784,2013-05-21 18:42:00,
2013-05-21 19:52:00,55.0,49.3,30.01,North,0,0.0,1.3,81,0.00,,,0.00,WeatherCatV1.10B1784,2013-05-21 18:52:00,
2013-05-21 20:02:00,54.7,48.9,30.02,WSW,247,0.0,0.0,81,0.00,,,0.00,WeatherCatV1.10B1784,2013-05-21 19:02:00,
2013-05-21 20:12:00,54.3,48.9,30.02,SSE,157,0.0,2.2,82,0.00,,,0.00,WeatherCatV1.10B1784,2013-05-21 19:12:00,
2013-05-21 20:22:00,54.1,48.8,30.02,SSE,157,0.0,0.0,82,0.00,,,0.00,WeatherCatV1.10B1784,2013-05-21 19:22:00,
2013-05-21 20:32:00,54.1,48.8,30.02,ESE,112,0.0,0.0,82,0.00,,,0.00,WeatherCatV1.10B1784,2013-05-21 19:32:00,
2013-05-21 20:42:00,54.0,48.9,30.03,SE,135,0.0,0.0,83,0.00,,,0.00,WeatherCatV1.10B1784,2013-05-21 19:42:00,
2013-05-21 20:52:00,53.8,48.7,30.03,SE,135,0.0,0.0,83,0.00,,,0.00,WeatherCatV1.10B1784,2013-05-21 19:52:00,
2013-05-21 21:02:00,53.8,49.0,30.03,WSW,247,0.9,1.3,84,0.00,,,0.00,WeatherCatV1.10B1784,2013-05-21 20:02:00,
2013-05-21 21:12:00,53.6,48.3,30.03,ESE,112,0.0,0.0,82,0.00,,,0.00,WeatherCatV1.10B1784,2013-05-21 20:12:00,
2013-05-21 21:22:00,53.4,47.5,30.04,ESE,112,1.6,1.6,80,0.00,,,0.00,WeatherCatV1.10B1784,2013-05-21 20:22:00,
2013-05-21 21:32:00,53.2,47.3,30.04,ESE,112,0.0,0.9,80,0.00,,,0.00,WeatherCatV1.10B1784,2013-05-21 20:32:00,
2013-05-21 21:42:00,52.7,46.8,30.04,ESE,112,2.0,2.0,80,0.00,,,0.00,WeatherCatV1.10B1784,2013-05-21 20:42:00,
2013-05-21 21:52:00,52.5,46.6,30.05,NE,45,0.9,3.4,80,0.00,,,0.00,WeatherCatV1.10B1784,2013-05-21 20:52:00,
2013-05-21 22:02:00,52.3,46.0,30.05,ESE,112,2.2,2.2,79,0.00,,,0.00,WeatherCatV1.10B1784,2013-05-21 21:02:00,
2013-05-21 22:12:00,52.0,45.9,30.06,WNW,292,0.0,1.3,79,0.00,,,0.00,WeatherCatV1.10B1784,2013-05-21 21:12:00,
2013-05-21 22:22:00,52.0,46.0,30.06,NE,45,1.1,1.8,80,0.00,,,0.00,WeatherCatV1.10B1784,2013-05-21 21:22:00,
2013-05-21 22:32:00,51.6,45.7,30.06,South,180,0.0,0.0,80,0.00,,,0.00,WeatherCatV1.10B1784,2013-05-21 21:32:00,
2013-05-21 22:42:00,51.6,45.7,30.06,NNE,22,0.0,2.5,80,0.00,,,0.00,WeatherCatV1.10B1784,2013-05-21 21:42:00,
2013-05-21 22:52:00,51.4,45.2,30.06,SSE,157,0.0,1.6,79,0.00,,,0.00,WeatherCatV1.10B1784,2013-05-21 21:52:00,
2013-05-21 23:02:00,51.3,45.0,30.06,NW,315,0.0,1.1,79,0.00,,,0.00,WeatherCatV1.10B1784,2013-05-21 22:02:00,
2013-05-21 23:12:00,51.1,45.1,30.06,ESE,112,0.0,1.6,80,0.00,,,0.00,WeatherCatV1.10B1784,2013-05-21 22:12:00,
2013-05-21 23:22:00,51.1,45.1,30.07,South,180,0.0,0.0,80,0.00,,,0.00,WeatherCatV1.10B1784,2013-05-21 22:22:00,
2013-05-21 23:32:00,50.9,45.0,30.07,SE,135,0.0,1.6,80,0.00,,,0.00,WeatherCatV1.10B1784,2013-05-21 22:32:00,
2013-05-21 23:42:00,50.7,44.8,30.06,SSE,157,0.0,0.0,80,0.00,,,0.00,WeatherCatV1.10B1784,2013-05-21 22:42:00,
2013-05-21 23:52:00,50.5,44.9,30.07,ESE,112,0.0,1.3,81,0.00,,,0.00,WeatherCatV1.10B1784,2013-05-21 22:52:00,